createdAt,value
2023-03-27T00:01:13.231Z,101213.78
2023-03-27T00:03:41.023Z,101212.34
2023-03-27T00:06:11.911Z,101217.59
2023-03-27T00:08:39.332Z,101231.63
2023-03-27T00:11:08.178Z,101224.78
2023-03-27T00:13:49.520Z,101246.72
2023-03-27T00:16:22.744Z,101250.00
2023-03-27T00:18:50.129Z,101264.25
2023-03-27T00:21:17.348Z,101268.38
2023-03-27T00:23:44.714Z,101288.34
2023-03-27T00:26:12.577Z,101288.09
2023-03-27T00:28:40.111Z,101294.06
2023-03-27T00:31:11.868Z,101294.41
2023-03-27T00:33:39.901Z,101310.84
2023-03-27T00:36:07.801Z,101307.81
2023-03-27T00:38:35.136Z,101323.16
2023-03-27T00:41:03.153Z,101332.19
2023-03-27T00:43:36.249Z,101335.72
2023-03-27T00:46:15.910Z,101333.28
2023-03-27T00:48:47.233Z,101330.53
2023-03-27T00:51:15.960Z,101337.66
2023-03-27T00:53:44.364Z,101335.75
2023-03-27T00:56:12.525Z,101334.38
2023-03-27T00:58:46.279Z,101338.22
2023-03-27T01:01:15.561Z,101345.59
2023-03-27T01:03:46.658Z,101344.50
2023-03-27T01:06:17.075Z,101349.16
2023-03-27T01:08:46.070Z,101352.16
2023-03-27T01:11:28.695Z,101367.75
2023-03-27T01:14:37.290Z,101363.09
2023-03-27T01:17:25.996Z,101384.78
2023-03-27T01:20:14.204Z,101374.34
2023-03-27T01:22:47.858Z,101387.72
2023-03-27T01:25:15.815Z,101387.75
2023-03-27T01:27:52.255Z,101392.66
2023-03-27T01:30:40.540Z,101391.03
2023-03-27T01:33:40.713Z,101396.50
2023-03-27T01:36:45.897Z,101393.47
2023-03-27T01:39:32.097Z,101396.22
2023-03-27T01:42:18.449Z,101404.16
2023-03-27T01:45:06.139Z,101400.59
2023-03-27T01:48:00.355Z,101407.41
2023-03-27T01:50:42.508Z,101412.56
2023-03-27T01:53:20.638Z,101407.44
2023-03-27T01:56:10.519Z,101423.59
2023-03-27T01:58:46.698Z,101422.44
2023-03-27T02:01:24.820Z,101427.38
2023-03-27T02:03:54.620Z,101429.00
2023-03-27T02:06:26.684Z,101434.47
2023-03-27T02:09:17.641Z,101435.31
2023-03-27T02:11:50.486Z,101440.88
2023-03-27T02:14:21.763Z,101440.03
2023-03-27T02:16:53.715Z,101443.34
2023-03-27T02:19:23.590Z,101446.00
2023-03-27T02:21:50.935Z,101445.50
2023-03-27T02:24:18.866Z,101449.31
2023-03-27T02:26:50.094Z,101455.31
2023-03-27T02:29:24.456Z,101454.25
2023-03-27T02:31:54.620Z,101456.38
2023-03-27T02:35:10.633Z,101463.84
2023-03-27T02:37:50.947Z,101459.50
2023-03-27T02:40:39.764Z,101469.16
2023-03-27T02:43:37.832Z,101470.13
2023-03-27T02:46:27.333Z,101472.28
2023-03-27T02:48:59.561Z,101474.72
2023-03-27T02:52:04.681Z,101464.75
2023-03-27T02:54:36.375Z,101480.19
2023-03-27T02:57:08.646Z,101472.28
2023-03-27T03:00:03.468Z,101478.72
2023-03-27T03:02:38.144Z,101484.19
2023-03-27T03:05:12.749Z,101488.75
2023-03-27T03:07:40.335Z,101494.28
2023-03-27T03:10:11.770Z,101488.81
2023-03-27T03:12:39.483Z,101499.25
2023-03-27T03:15:11.119Z,101507.75
2023-03-27T03:17:38.480Z,101506.38
2023-03-27T03:20:08.019Z,101515.47
2023-03-27T03:22:36.461Z,101510.22
2023-03-27T03:25:04.089Z,101522.88
2023-03-27T03:27:34.327Z,101521.72
2023-03-27T03:30:09.494Z,101518.97
2023-03-27T03:32:55.106Z,101521.75
2023-03-27T03:35:24.603Z,101524.16
2023-03-27T03:37:53.036Z,101525.50
2023-03-27T03:40:21.225Z,101532.00
2023-03-27T03:42:52.130Z,101525.00
2023-03-27T03:45:24.135Z,101523.88
2023-03-27T03:47:51.589Z,101539.28
2023-03-27T03:50:18.867Z,101551.78
2023-03-27T03:52:47.170Z,101545.09
2023-03-27T03:55:18.057Z,101557.00
2023-03-27T03:57:47.583Z,101554.13
2023-03-27T04:00:22.946Z,101563.41
2023-03-27T04:02:53.796Z,101571.16
2023-03-27T04:05:22.526Z,101578.16
2023-03-27T04:07:53.440Z,101587.78
2023-03-27T04:10:48.298Z,101585.19
2023-03-27T04:13:34.050Z,101584.34
2023-03-27T04:16:11.743Z,101585.22
2023-03-27T04:18:43.953Z,101596.75
2023-03-27T04:21:18.318Z,101596.13
2023-03-27T04:23:48.330Z,101603.69
2023-03-27T04:26:26.604Z,101608.41
2023-03-27T04:29:12.894Z,101613.88
2023-03-27T04:32:05.701Z,101622.38
2023-03-27T04:34:42.130Z,101618.72
2023-03-27T04:37:09.430Z,101623.97
2023-03-27T04:39:42.989Z,101617.53
2023-03-27T04:42:10.652Z,101629.75
2023-03-27T04:44:39.086Z,101633.75
2023-03-27T04:47:08.983Z,101637.91
2023-03-27T04:49:39.411Z,101641.28
2023-03-27T04:52:18.120Z,101652.97
2023-03-27T04:54:46.648Z,101660.88
2023-03-27T04:57:15.818Z,101667.03
2023-03-27T04:59:43.391Z,101657.50
2023-03-27T05:02:43.078Z,101661.91
2023-03-27T05:05:17.094Z,101668.81
2023-03-27T05:07:45.910Z,101677.47
2023-03-27T05:10:21.878Z,101671.63
2023-03-27T05:12:52.398Z,101682.28
2023-03-27T05:15:21.114Z,101670.63
2023-03-27T05:17:55.173Z,101681.03
2023-03-27T05:20:25.257Z,101680.38
2023-03-27T05:22:54.764Z,101682.44
2023-03-27T05:25:26.324Z,101701.28
2023-03-27T05:27:54.676Z,101695.94
2023-03-27T05:30:24.762Z,101699.41
2023-03-27T05:33:02.973Z,101710.78
2023-03-27T05:35:30.676Z,101703.72
2023-03-27T05:37:59.443Z,101706.53
2023-03-27T05:40:32.692Z,101705.91
2023-03-27T05:43:00.699Z,101712.66
2023-03-27T05:45:31.005Z,101703.19
2023-03-27T05:48:01.163Z,101711.59
2023-03-27T05:50:32.464Z,101720.25
2023-03-27T05:53:02.481Z,101719.63
2023-03-27T05:55:37.514Z,101721.38
2023-03-27T05:58:06.562Z,101728.06
2023-03-27T06:00:34.460Z,101730.88
2023-03-27T06:03:03.706Z,101731.34
2023-03-27T06:06:00.246Z,101736.31
2023-03-27T06:08:34.908Z,101741.75
2023-03-27T06:11:08.628Z,101748.50
2023-03-27T06:13:40.396Z,101741.03
2023-03-27T06:16:10.636Z,101757.09
2023-03-27T06:18:47.752Z,101750.13
2023-03-27T06:21:17.536Z,101753.22
2023-03-27T06:23:45.881Z,101757.84
2023-03-27T06:26:15.573Z,101757.19
2023-03-27T06:28:43.587Z,101773.44
2023-03-27T06:31:14.862Z,101762.38
2023-03-27T06:34:03.976Z,101771.91
2023-03-27T06:36:51.609Z,101770.88
2023-03-27T06:39:19.211Z,101773.69
2023-03-27T06:41:49.890Z,101783.03
2023-03-27T06:44:27.401Z,101785.69
2023-03-27T06:47:00.815Z,101793.03
2023-03-27T06:49:35.892Z,101793.06
2023-03-27T06:52:11.387Z,101795.25
2023-03-27T06:54:42.591Z,101799.16
2023-03-27T06:57:09.891Z,101802.97
2023-03-27T06:59:49.278Z,101802.72
2023-03-27T07:02:21.351Z,101805.75
2023-03-27T07:05:08.482Z,101809.56
2023-03-27T07:07:41.675Z,101818.63
2023-03-27T07:10:11.567Z,101815.00
2023-03-27T07:12:41.579Z,101819.28
2023-03-27T07:15:10.564Z,101820.41
2023-03-27T07:17:47.695Z,101821.63
2023-03-27T07:20:17.799Z,101818.63
2023-03-27T07:22:45.177Z,101816.75
2023-03-27T07:25:29.066Z,101829.44
2023-03-27T07:28:00.176Z,101823.13
2023-03-27T07:30:28.499Z,101832.09
2023-03-27T07:32:57.882Z,101821.84
2023-03-27T07:35:25.677Z,101833.75
2023-03-27T07:38:11.912Z,101835.88
2023-03-27T07:41:05.843Z,101834.91
2023-03-27T07:44:08.358Z,101825.19
2023-03-27T07:46:46.858Z,101823.91
2023-03-27T07:49:14.278Z,101822.28
2023-03-27T07:51:41.633Z,101836.09
2023-03-27T07:54:13.259Z,101842.91
2023-03-27T07:56:46.310Z,101838.84
2023-03-27T07:59:22.586Z,101836.34
2023-03-27T08:01:50.721Z,101833.66
2023-03-27T08:04:20.427Z,101840.34
2023-03-27T08:07:02.321Z,101835.88
2023-03-27T08:09:30.417Z,101840.63
2023-03-27T08:11:57.895Z,101846.34
2023-03-27T08:14:28.455Z,101850.81
2023-03-27T08:17:12.491Z,101856.69
2023-03-27T08:19:45.504Z,101850.91
2023-03-27T08:22:14.004Z,101863.09
2023-03-27T08:25:00.662Z,101857.41
2023-03-27T08:27:28.747Z,101864.63
2023-03-27T08:29:57.386Z,101881.50
2023-03-27T08:32:25.103Z,101889.66
2023-03-27T08:34:55.535Z,101880.09
2023-03-27T08:37:23.984Z,101892.69
2023-03-27T08:40:26.152Z,101895.03
2023-03-27T08:43:11.884Z,101888.06
2023-03-27T08:45:49.879Z,101898.66
2023-03-27T08:48:27.402Z,101898.66
2023-03-27T08:50:56.346Z,101906.47
2023-03-27T08:53:44.999Z,101907.72
2023-03-27T08:56:14.910Z,101914.13
2023-03-27T08:58:45.059Z,101917.66
2023-03-27T09:01:22.866Z,101917.63
2023-03-27T09:04:02.885Z,101928.38
2023-03-27T09:06:48.305Z,101933.81
2023-03-27T09:09:42.485Z,101943.03
2023-03-27T09:12:40.249Z,101946.22
2023-03-27T09:15:17.569Z,101955.97
2023-03-27T09:18:01.991Z,101945.13
2023-03-27T09:20:43.375Z,101953.56
2023-03-27T09:23:21.078Z,101965.47
2023-03-27T09:26:37.134Z,101954.78
2023-03-27T09:29:20.318Z,101954.78
2023-03-27T09:31:54.040Z,101958.81
2023-03-27T09:34:29.305Z,101968.78
2023-03-27T09:36:59.223Z,101965.94
2023-03-27T09:39:32.729Z,101965.47
2023-03-27T09:42:31.053Z,101978.53
2023-03-27T09:45:02.438Z,101976.97
2023-03-27T09:47:38.586Z,101965.81
2023-03-27T09:50:28.363Z,101983.25
2023-03-27T09:53:12.447Z,101995.59
2023-03-27T09:56:09.871Z,101991.59
2023-03-27T09:58:46.345Z,101996.44
2023-03-27T10:05:12.085Z,101991.69
2023-03-27T10:07:42.732Z,101994.75
2023-03-27T10:10:42.527Z,101979.06
2023-03-27T10:13:27.911Z,101995.75
2023-03-27T10:16:07.664Z,101991.81
2023-03-27T10:18:46.536Z,101998.47
2023-03-27T10:21:24.337Z,101980.38
2023-03-27T10:23:52.508Z,101981.25
2023-03-27T10:26:56.525Z,101998.84
2023-03-27T10:29:26.760Z,101986.03
2023-03-27T10:31:56.726Z,101982.91
2023-03-27T10:34:58.379Z,101979.84
2023-03-27T10:37:54.360Z,101983.75
2023-03-27T10:40:30.955Z,101982.13
2023-03-27T10:43:07.206Z,101984.38
2023-03-27T10:45:46.506Z,101982.41
2023-03-27T10:48:30.078Z,101986.75
2023-03-27T10:51:05.370Z,102001.84
2023-03-27T10:53:57.500Z,102000.25
2023-03-27T10:56:49.670Z,101994.78
2023-03-27T10:59:42.945Z,102003.88
2023-03-27T11:02:24.387Z,102001.06
2023-03-27T11:04:58.218Z,102000.03
2023-03-27T11:07:41.836Z,102007.78
2023-03-27T11:10:18.556Z,102011.34
2023-03-27T11:12:54.207Z,102012.59
2023-03-27T11:15:28.007Z,102016.09
2023-03-27T11:18:06.924Z,102004.41
2023-03-27T11:20:56.470Z,102003.69
2023-03-27T11:23:41.301Z,102003.19
2023-03-27T11:26:28.397Z,102004.28
2023-03-27T11:28:57.738Z,102008.13
2023-03-27T11:31:41.065Z,102013.63
2023-03-27T11:34:28.576Z,102013.63
2023-03-27T11:37:20.262Z,102007.56
2023-03-27T11:40:07.545Z,102011.41
2023-03-27T11:42:40.556Z,102011.72
2023-03-27T11:45:21.482Z,102009.00
2023-03-27T11:48:19.398Z,102008.97
2023-03-27T11:51:00.115Z,102014.19
2023-03-27T11:53:36.828Z,102012.25
2023-03-27T11:56:13.398Z,102020.81
2023-03-27T11:59:07.280Z,102028.22
2023-03-27T12:01:47.554Z,102032.91
2023-03-27T12:04:33.934Z,102032.06
2023-03-27T12:07:47.886Z,102032.59
2023-03-27T12:10:34.231Z,102038.41
2023-03-27T12:13:41.623Z,102038.34
2023-03-27T12:16:48.122Z,102046.06
2023-03-27T12:19:56.560Z,102034.81
2023-03-27T12:22:43.736Z,102036.47
2023-03-27T12:25:32.718Z,102040.59
2023-03-27T12:28:30.720Z,102045.84
2023-03-27T12:31:19.815Z,102032.06
2023-03-27T12:33:55.737Z,102047.75
2023-03-27T12:36:26.287Z,102040.31
2023-03-27T12:38:56.821Z,102045.03
2023-03-27T12:41:33.480Z,102037.28
2023-03-27T12:44:19.035Z,102048.28
2023-03-27T12:47:27.262Z,102035.63
2023-03-27T12:50:19.149Z,102032.38
2023-03-27T12:52:47.304Z,102025.75
2023-03-27T12:55:19.552Z,102036.94
2023-03-27T12:58:00.654Z,102048.88
2023-03-27T13:00:54.170Z,102043.91
2023-03-27T13:03:44.288Z,102045.00
2023-03-27T13:06:37.267Z,102029.31
2023-03-27T13:09:14.652Z,102038.13
2023-03-27T13:12:20.730Z,102037.84
2023-03-27T13:15:06.912Z,102029.59
2023-03-27T13:17:42.401Z,102031.25
2023-03-27T13:20:34.811Z,102026.31
2023-03-27T13:23:10.592Z,102034.00
2023-03-27T13:26:17.274Z,102032.63
2023-03-27T13:28:51.226Z,102029.03
2023-03-27T13:31:57.086Z,102039.50
2023-03-27T13:34:39.903Z,102034.50
2023-03-27T13:37:16.471Z,102030.41
2023-03-27T13:39:59.553Z,102031.25
2023-03-27T13:42:33.012Z,102028.19
2023-03-27T13:45:23.697Z,102021.59
2023-03-27T13:48:40.083Z,102021.34
2023-03-27T13:51:22.981Z,102028.22
2023-03-27T13:54:18.809Z,102029.88
2023-03-27T13:57:25.904Z,102026.28
2023-03-27T14:00:07.702Z,102028.53
2023-03-27T14:03:03.987Z,102028.47
2023-03-27T14:06:01.163Z,102033.16
2023-03-27T14:08:39.900Z,102025.75
2023-03-27T14:11:53.122Z,102029.50
2023-03-27T14:14:51.298Z,102029.56
2023-03-27T14:17:31.346Z,102034.50
2023-03-27T14:20:11.788Z,102028.72
2023-03-27T14:23:05.806Z,102038.38
2023-03-27T14:25:56.441Z,102035.09
2023-03-27T14:28:51.392Z,102024.63
2023-03-27T14:31:29.508Z,102027.19
2023-03-27T14:34:12.189Z,102039.97
2023-03-27T14:36:50.312Z,102036.44
2023-03-27T14:39:31.049Z,102039.69
2023-03-27T14:42:15.993Z,102036.94
2023-03-27T14:44:47.827Z,102045.81
2023-03-27T14:47:17.645Z,102038.09
2023-03-27T14:49:49.119Z,102035.34
2023-03-27T14:52:27.722Z,102047.47
2023-03-27T14:55:34.621Z,102043.91
2023-03-27T14:58:21.727Z,102045.19
2023-03-27T15:01:02.009Z,102053.75
2023-03-27T15:03:35.300Z,102042.50
2023-03-27T15:06:26.509Z,102038.97
2023-03-27T15:09:05.834Z,102043.06
2023-03-27T15:11:56.300Z,102027.38
2023-03-27T15:14:29.225Z,102018.84
2023-03-27T15:17:01.064Z,102023.78
2023-03-27T15:19:31.354Z,102031.25
2023-03-27T15:22:18.866Z,102035.94
2023-03-27T15:25:00.000Z,102048.28
2023-03-27T15:27:36.066Z,102053.78
2023-03-27T15:30:18.031Z,102050.22
2023-03-27T15:32:50.894Z,102048.00
2023-03-27T15:35:22.278Z,102059.28
2023-03-27T15:37:50.367Z,102051.34
2023-03-27T15:40:26.688Z,102045.00
2023-03-27T15:43:01.714Z,102047.78
2023-03-27T15:45:38.165Z,102047.19
2023-03-27T15:48:24.247Z,102053.25
2023-03-27T15:51:07.765Z,102054.06
2023-03-27T15:53:46.565Z,102043.88
2023-03-27T15:56:13.823Z,102052.09
2023-03-27T15:58:47.722Z,102056.97
2023-03-27T16:01:19.908Z,102049.63
2023-03-27T16:03:48.558Z,102052.44
2023-03-27T16:06:27.004Z,102051.88
2023-03-27T16:08:55.048Z,102059.31
2023-03-27T16:11:40.519Z,102064.53
2023-03-27T16:14:42.346Z,102047.75
2023-03-27T16:17:14.725Z,102056.53
2023-03-27T16:20:01.978Z,102055.47
2023-03-27T16:22:31.870Z,102049.66
2023-03-27T16:25:00.834Z,102052.69
2023-03-27T16:27:37.243Z,102043.91
2023-03-27T16:30:06.683Z,102043.88
2023-03-27T16:32:34.437Z,102046.66
2023-03-27T16:35:02.274Z,102054.34
2023-03-27T16:37:29.631Z,102055.72
2023-03-27T16:39:58.106Z,102062.06
2023-03-27T16:42:26.422Z,102061.53
2023-03-27T16:44:54.135Z,102061.50
2023-03-27T16:47:23.476Z,102067.84
2023-03-27T16:50:08.182Z,102056.28
2023-03-27T16:52:38.021Z,102066.47
2023-03-27T16:55:07.502Z,102068.38
2023-03-27T16:57:36.380Z,102069.78
2023-03-27T17:00:05.442Z,102073.09
2023-03-27T17:02:34.820Z,102071.97
2023-03-27T17:05:04.280Z,102065.34
2023-03-27T17:07:31.686Z,102068.66
2023-03-27T17:09:59.427Z,102064.81
2023-03-27T17:12:28.736Z,102064.25
2023-03-27T17:14:56.688Z,102075.84
2023-03-27T17:17:24.190Z,102073.63
2023-03-27T17:19:51.562Z,102069.22
2023-03-27T17:22:18.948Z,102068.41
2023-03-27T17:24:56.236Z,102073.59
2023-03-27T17:27:26.867Z,102075.53
2023-03-27T17:29:56.455Z,102067.28
2023-03-27T17:32:25.431Z,102065.38
2023-03-27T17:34:56.187Z,102077.75
2023-03-27T17:37:23.915Z,102078.59
2023-03-27T17:39:51.483Z,102082.97
2023-03-27T17:42:22.087Z,102084.63
2023-03-27T17:44:49.535Z,102088.47
2023-03-27T17:47:17.123Z,102083.00
2023-03-27T17:49:45.253Z,102085.44
2023-03-27T17:52:13.415Z,102091.50
2023-03-27T17:54:40.789Z,102087.91
2023-03-27T17:57:08.211Z,102100.84
2023-03-27T17:59:36.406Z,102081.88
2023-03-27T18:02:04.020Z,102091.50
2023-03-27T18:04:31.723Z,102092.06
2023-03-27T18:06:59.079Z,102093.41
2023-03-27T18:09:26.573Z,102097.50
2023-03-27T18:11:53.984Z,102098.56
2023-03-27T18:14:21.414Z,102095.03
2023-03-27T18:16:48.798Z,102101.94
2023-03-27T18:19:16.219Z,102103.56
2023-03-27T18:21:43.623Z,102103.56
2023-03-27T18:24:11.174Z,102107.97
2023-03-27T18:26:38.431Z,102104.13
2023-03-27T18:29:05.658Z,102097.56
2023-03-27T18:31:33.173Z,102100.59
2023-03-27T18:34:01.109Z,102111.28
2023-03-27T18:36:28.424Z,102105.22
2023-03-27T18:38:56.590Z,102108.78
2023-03-27T18:41:24.156Z,102111.56
2023-03-27T18:43:51.468Z,102111.28
2023-03-27T18:46:20.479Z,102114.78
2023-03-27T18:48:50.856Z,102118.13
2023-03-27T18:51:21.030Z,102119.22
2023-03-27T18:53:49.241Z,102122.53
2023-03-27T18:56:17.268Z,102124.16
2023-03-27T18:58:44.717Z,102126.88
2023-03-27T19:01:12.560Z,102129.19
2023-03-27T19:03:40.674Z,102133.00
2023-03-27T19:06:09.669Z,102126.38
2023-03-27T19:08:37.905Z,102138.00
2023-03-27T19:11:06.330Z,102136.88
2023-03-27T19:13:51.978Z,102137.66
2023-03-27T19:16:30.821Z,102136.78
2023-03-27T19:19:16.677Z,102140.09
2023-03-27T19:22:05.961Z,102140.63
2023-03-27T19:24:43.644Z,102143.09
2023-03-27T19:27:23.956Z,102139.53
2023-03-27T19:29:53.063Z,102136.25
2023-03-27T19:32:21.111Z,102141.25
2023-03-27T19:34:48.477Z,102145.69
2023-03-27T19:37:15.893Z,102151.94
2023-03-27T19:39:43.154Z,102151.38
2023-03-27T19:42:11.050Z,102151.97
2023-03-27T19:44:38.388Z,102149.22
2023-03-27T19:47:07.886Z,102142.84
2023-03-27T19:49:38.278Z,102143.41
2023-03-27T19:52:19.749Z,102148.31
2023-03-27T19:54:47.291Z,102149.94
2023-03-27T19:57:14.814Z,102159.31
2023-03-27T19:59:42.081Z,102162.66
2023-03-27T20:02:11.908Z,102156.69
2023-03-27T20:04:39.573Z,102157.25
2023-03-27T20:07:10.195Z,102154.97
2023-03-27T20:09:37.552Z,102162.06
2023-03-27T20:12:05.329Z,102160.22
2023-03-27T20:14:32.844Z,102157.72
2023-03-27T20:17:00.320Z,102159.91
2023-03-27T20:19:30.483Z,102155.81
2023-03-27T20:22:00.196Z,102153.88
2023-03-27T20:24:28.949Z,102153.94
2023-03-27T20:26:59.531Z,102150.91
2023-03-27T20:29:26.915Z,102152.31
2023-03-27T20:31:54.275Z,102150.88
2023-03-27T20:34:22.748Z,102152.25
2023-03-27T20:36:52.897Z,102151.19
2023-03-27T20:39:33.491Z,102144.84
2023-03-27T20:42:00.740Z,102147.28
2023-03-27T20:44:35.994Z,102150.03
2023-03-27T20:47:10.917Z,102157.56
2023-03-27T20:49:42.995Z,102156.56
2023-03-27T20:52:12.886Z,102148.94
2023-03-27T20:54:40.628Z,102153.09
2023-03-27T20:57:10.438Z,102157.47
2023-03-27T20:59:37.970Z,102169.47
2023-03-27T21:02:05.562Z,102169.69
2023-03-27T21:04:33.001Z,102168.41
2023-03-27T21:07:00.274Z,102162.09
2023-03-27T21:09:27.880Z,102151.13
2023-03-27T21:11:56.018Z,102166.16
2023-03-27T21:14:23.788Z,102163.91
2023-03-27T21:16:52.142Z,102165.22
2023-03-27T21:19:21.224Z,102168.59
2023-03-27T21:21:49.390Z,102184.34
2023-03-27T21:24:16.828Z,102182.94
2023-03-27T21:26:44.032Z,102176.09
2023-03-27T21:29:11.498Z,102181.53
2023-03-27T21:31:39.879Z,102175.75
2023-03-27T21:34:07.591Z,102173.28
2023-03-27T21:36:35.469Z,102176.06
2023-03-27T21:39:02.829Z,102178.50
2023-03-27T21:41:31.014Z,102171.44
2023-03-27T21:43:58.243Z,102170.31
2023-03-27T21:46:25.897Z,102164.25
2023-03-27T21:48:53.290Z,102165.69
2023-03-27T21:51:20.535Z,102173.06
2023-03-27T21:53:47.961Z,102178.72
2023-03-27T21:56:15.355Z,102166.97
2023-03-27T21:58:42.559Z,102175.25
2023-03-27T22:01:09.869Z,102173.03
2023-03-27T22:03:37.317Z,102168.06
2023-03-27T22:06:11.862Z,102162.31
2023-03-27T22:08:42.172Z,102163.75
2023-03-27T22:11:11.009Z,102158.31
2023-03-27T22:13:39.007Z,102151.97
2023-03-27T22:16:13.901Z,102157.44
2023-03-27T22:18:42.553Z,102164.00
2023-03-27T22:21:26.008Z,102173.38
2023-03-27T22:23:54.934Z,102170.94
2023-03-27T22:26:24.878Z,102170.34
2023-03-27T22:28:52.763Z,102168.47
2023-03-27T22:31:21.365Z,102185.41
2023-03-27T22:33:48.977Z,102182.72
2023-03-27T22:36:16.616Z,102189.09
2023-03-27T22:38:43.835Z,102178.53
2023-03-27T22:41:12.820Z,102179.97
2023-03-27T22:43:40.357Z,102175.34
2023-03-27T22:46:13.005Z,102180.84
2023-03-27T22:48:40.774Z,102179.34
2023-03-27T22:51:09.010Z,102180.41
2023-03-27T22:53:39.446Z,102184.47
2023-03-27T22:56:07.818Z,102174.13
2023-03-27T22:58:35.220Z,102184.09
2023-03-27T23:01:03.591Z,102184.38
2023-03-27T23:03:31.296Z,102183.00
2023-03-27T23:05:58.823Z,102194.34
2023-03-27T23:08:28.239Z,102184.75
2023-03-27T23:10:59.750Z,102181.63
2023-03-27T23:13:28.478Z,102181.06
2023-03-27T23:15:56.122Z,102183.78
2023-03-27T23:18:24.865Z,102180.34
2023-03-27T23:21:05.393Z,102188.91
2023-03-27T23:23:34.360Z,102187.94
2023-03-27T23:26:02.901Z,102194.19
2023-03-27T23:28:33.009Z,102190.50
2023-03-27T23:31:02.364Z,102192.97
2023-03-27T23:33:34.629Z,102198.50
2023-03-27T23:36:17.037Z,102192.66
2023-03-27T23:38:44.487Z,102199.72
2023-03-27T23:41:13.398Z,102193.34
2023-03-27T23:43:40.704Z,102192.50
2023-03-27T23:46:10.570Z,102200.16
2023-03-27T23:48:38.438Z,102202.56
2023-03-27T23:51:06.760Z,102196.31
2023-03-27T23:53:35.136Z,102200.56
2023-03-27T23:56:03.164Z,102193.00
2023-03-27T23:58:33.691Z,102190.22
